Time;durP1;ratioP1;P1;durP2;ratioP2;P2;SDS_P1;SDS_P2;PMS_P1;PMS_P2;Temp;Humidity;BMP_temperature;BMP_pressure;BME280_temperature;BME280_humidity;BME280_pressure;Samples;Min_cycle;Max_cycle;Signal;HPM_P1;HPM_P2
2022/11/18 00:00:53;;;;;;;;;;;;;;;-142.75;100.00;76034.91;5104160;28;19919;-67
2022/11/18 00:03:18;;;;;;;;;;;;;;;-142.75;100.00;76036.88;5085667;27;19942;-67
2022/11/18 00:05:51;;;;;;;;;;;;;;;-142.75;100.00;76046.72;5104917;28;19916;-66
2022/11/18 00:08:16;;;;;;;;;;;;;;;-142.75;100.00;76036.88;5103655;27;19945;-66
2022/11/18 00:10:41;;;;;;;;;;;;;;;-142.75;100.00;76044.75;5104831;28;20373;-65
2022/11/18 00:16:03;;;;;;;;;;;;;;;-142.75;100.00;76048.69;5104598;28;19922;-66
2022/11/18 00:18:29;;;;;;;;;;;;;;;-142.75;100.00;76066.41;5103698;27;19915;-66
2022/11/18 00:20:54;;;;;;;;;;;;;;;-142.75;100.00;76058.53;5104302;28;20369;-65
2022/11/18 00:23:19;;;;;;;;;;;;;;;-142.75;100.00;76066.41;5104108;28;19991;-67
2022/11/18 00:25:44;;;;;;;;;;;;;;;-142.75;100.00;76068.38;5104780;27;20341;-66
2022/11/18 00:28:10;;;;;;;;;;;;;;;-142.75;100.00;76068.38;5103231;28;19926;-65
2022/11/18 00:30:35;;;;;;;;;;;;;;;-142.75;100.00;76095.91;5104050;27;19958;-65
2022/11/18 00:33:00;;;;;;;;;;;;;;;-142.75;100.00;76086.06;5103650;28;19920;-65
2022/11/18 00:35:25;;;;;;;;;;;;;;;-142.75;100.00;76082.13;5104452;28;19911;-66
2022/11/18 00:37:50;;;;;;;;;;;;;;;-142.75;100.00;76078.19;5102919;28;20010;-65
2022/11/18 00:40:16;;;;;;;;;;;;;;;-142.75;100.00;76093.94;5085338;28;20444;-66
2022/11/18 00:42:50;;;;;;;;;;;;;;;-142.75;100.00;76090.00;5103213;28;19919;-64
2022/11/18 00:45:16;;;;;;;;;;;;;;;-142.75;100.00;76093.94;5085217;28;19963;-65
2022/11/18 00:47:41;;;;;;;;;;;;;;;-142.75;100.00;76097.88;5102642;28;20041;-66
2022/11/18 00:50:07;;;;;;;;;;;;;;;-142.75;100.00;76091.97;5084633;28;19922;-66
2022/11/18 00:52:32;;;;;;;;;;;;;;;-142.75;100.00;76097.88;5103335;28;19943;-66
2022/11/18 00:54:57;;;;;;;;;;;;;;;-142.75;100.00;76101.81;5102914;28;19922;-67
2022/11/18 00:57:22;;;;;;;;;;;;;;;-142.75;100.00;76109.69;5085099;28;19915;-64
2022/11/18 00:59:47;;;;;;;;;;;;;;;-142.75;100.00;76115.59;5103091;28;19916;-67
2022/11/18 01:02:13;;;;;;;;;;;;;;;-142.75;100.00;76133.31;5102681;28;20380;-66
2022/11/18 01:04:38;;;;;;;;;;;;;;;-142.75;100.00;76141.19;5103039;28;19916;-67
2022/11/18 01:07:03;;;;;;;;;;;;;;;-142.75;100.00;76143.16;5100750;27;20472;-66
2022/11/18 01:09:28;;;;;;;;;;;;;;;-142.75;100.00;76147.09;5102802;28;21791;-67
2022/11/18 01:14:37;;;;;;;;;;;;;;;-142.75;100.00;76164.81;5102835;28;19974;-65
2022/11/18 01:17:03;;;;;;;;;;;;;;;-142.75;100.00;76164.81;5101242;28;20018;-64
2022/11/18 01:19:28;;;;;;;;;;;;;;;-142.75;100.00;76174.66;5102779;27;19915;-66
2022/11/18 01:21:55;;;;;;;;;;;;;;;-142.75;100.00;76180.56;5102549;28;20027;-67
2022/11/18 01:24:20;;;;;;;;;;;;;;;-142.75;100.00;76170.72;5084010;28;20030;-66
2022/11/18 01:26:45;;;;;;;;;;;;;;;-142.75;100.00;76172.69;5102627;28;19915;-66
2022/11/18 01:29:10;;;;;;;;;;;;;;;-142.75;100.00;76176.63;5102178;28;20010;-66
2022/11/18 01:31:36;;;;;;;;;;;;;;;-142.75;100.00;76168.75;5102672;28;19964;-67
2022/11/18 01:34:02;;;;;;;;;;;;;;;-142.75;100.00;76176.63;5083785;28;19912;-64
2022/11/18 01:36:27;;;;;;;;;;;;;;;-142.75;100.00;76160.88;5102206;28;19915;-65
2022/11/18 01:38:53;;;;;;;;;;;;;;;-142.75;100.00;76156.94;5083272;22;20422;-67
2022/11/18 01:41:20;;;;;;;;;;;;;;;-142.75;100.00;76160.88;5101308;28;19973;-67
2022/11/18 01:43:59;;;;;;;;;;;;;;;-142.75;100.00;76160.88;5101894;28;20010;-67
2022/11/18 01:46:26;;;;;;;;;;;;;;;-142.75;100.00;76160.88;5101515;28;19921;-67
2022/11/18 01:48:54;;;;;;;;;;;;;;;-142.75;100.00;76160.88;5101297;28;20270;-67
2022/11/18 01:51:22;;;;;;;;;;;;;;;-142.75;100.00;76160.88;5101546;28;19920;-67
2022/11/18 01:53:50;;;;;;;;;;;;;;;-142.75;100.00;76164.81;5083475;28;20004;-66
2022/11/18 01:56:17;;;;;;;;;;;;;;;-142.75;100.00;76162.84;5102164;28;19915;-67
2022/11/18 01:58:45;;;;;;;;;;;;;;;-142.75;100.00;76149.06;5101395;28;22515;-67
2022/11/18 02:01:10;;;;;;;;;;;;;;;-142.75;100.00;76172.69;5101159;28;19916;-67
2022/11/18 02:03:35;;;;;;;;;;;;;;;-142.75;100.00;76166.78;5101637;28;19959;-67
2022/11/18 02:06:02;;;;;;;;;;;;;;;-142.75;100.00;76168.75;5101256;28;19919;-66
2022/11/18 02:08:28;;;;;;;;;;;;;;;-142.75;100.00;76156.94;5100902;28;20006;-67
2022/11/18 02:10:53;;;;;;;;;;;;;;;-142.75;100.00;76168.75;5101147;28;19947;-67
2022/11/18 02:13:18;;;;;;;;;;;;;;;-142.75;100.00;76170.72;5101172;28;20445;-68
2022/11/18 02:15:52;;;;;;;;;;;;;;;-142.75;100.00;76176.63;5101530;28;19915;-67
2022/11/18 02:18:36;;;;;;;;;;;;;;;-142.75;100.00;76166.78;5099493;28;19916;-67
2022/11/18 02:21:13;;;;;;;;;;;;;;;-142.75;100.00;76180.56;5100856;28;19930;-68
2022/11/18 02:23:44;;;;;;;;;;;;;;;-142.75;100.00;76176.63;5101011;28;20409;-67
2022/11/18 02:26:15;;;;;;;;;;;;;;;-142.75;100.00;76176.63;5101292;28;19920;-67
2022/11/18 02:29:16;;;;;;;;;;;;;;;-142.75;100.00;76174.66;5082614;28;19911;-67
2022/11/18 02:32:04;;;;;;;;;;;;;;;-142.75;100.00;76180.56;4998260;28;19917;-67
2022/11/18 02:34:52;;;;;;;;;;;;;;;-142.75;100.00;76194.34;5094901;28;19955;-67
2022/11/18 02:37:42;;;;;;;;;;;;;;;-142.75;100.00;76186.47;5086294;28;19915;-66
2022/11/18 02:40:07;;;;;;;;;;;;;;;-142.75;100.00;76192.38;5100407;28;20070;-66
2022/11/18 02:42:34;;;;;;;;;;;;;;;-142.75;100.00;76200.25;5086176;28;19929;-67
2022/11/18 02:45:04;;;;;;;;;;;;;;;-142.75;100.00;76202.19;5080555;28;19973;-67
2022/11/18 02:47:31;;;;;;;;;;;;;;;-142.75;100.00;76206.13;5079589;28;19924;-69
2022/11/18 02:50:02;;;;;;;;;;;;;;;-142.75;100.00;76212.03;5080422;28;19963;-67
2022/11/18 02:52:29;;;;;;;;;;;;;;;-142.75;100.00;76208.09;5080828;28;20447;-67
2022/11/18 02:54:55;;;;;;;;;;;;;;;-142.75;100.00;76217.94;5080448;28;20629;-67
2022/11/18 02:57:22;;;;;;;;;;;;;;;-142.75;100.00;76208.09;5080734;28;19985;-67
2022/11/18 02:59:47;;;;;;;;;;;;;;;-142.75;100.00;76223.84;5080575;28;19930;-67
2022/11/18 03:02:17;;;;;;;;;;;;;;;-142.75;100.00;76231.72;5080228;28;19915;-67
2022/11/18 03:04:44;;;;;;;;;;;;;;;-142.75;100.00;76231.72;5080237;28;20465;-67
2022/11/18 03:07:15;;;;;;;;;;;;;;;-142.75;100.00;76215.97;5078993;28;20997;-66
2022/11/18 03:09:43;;;;;;;;;;;;;;;-142.75;100.00;76227.78;5080322;28;19927;-67
2022/11/18 03:12:26;;;;;;;;;;;;;;;-142.75;100.00;76231.72;5080068;28;19916;-67
2022/11/18 03:14:51;;;;;;;;;;;;;;;-142.75;100.00;76245.50;5093167;28;19915;-67
2022/11/18 03:17:16;;;;;;;;;;;;;;;-142.75;100.00;76247.47;5099568;28;19915;-67
2022/11/18 03:19:50;;;;;;;;;;;;;;;-142.75;100.00;76243.53;5099116;28;20021;-67
2022/11/18 03:22:25;;;;;;;;;;;;;;;-142.75;100.00;76253.38;5100243;28;19915;-67
2022/11/18 03:24:54;;;;;;;;;;;;;;;-142.75;100.00;76261.25;5096159;28;19985;-67
2022/11/18 03:27:26;;;;;;;;;;;;;;;-142.75;100.00;76255.34;5084832;28;20119;-68
2022/11/18 03:29:55;;;;;;;;;;;;;;;-142.75;100.00;76261.25;5061521;28;19923;-66
2022/11/18 03:32:24;;;;;;;;;;;;;;;-142.75;100.00;76263.22;5079778;28;19922;-67
2022/11/18 03:34:52;;;;;;;;;;;;;;;-142.75;100.00;76271.09;5079975;28;19930;-67
2022/11/18 03:37:19;;;;;;;;;;;;;;;-142.75;100.00;76269.13;5079142;28;19968;-67
2022/11/18 03:39:58;;;;;;;;;;;;;;;-142.75;100.00;76269.13;5079947;28;19920;-67
2022/11/18 03:42:27;;;;;;;;;;;;;;;-142.75;100.00;76269.13;5095291;28;19916;-67
2022/11/18 03:44:55;;;;;;;;;;;;;;;-142.75;100.00;76271.09;5100176;28;19970;-67
2022/11/18 03:47:47;;;;;;;;;;;;;;;-142.75;100.00;76282.91;5081977;28;20161;-67
2022/11/18 03:50:16;;;;;;;;;;;;;;;-142.75;100.00;76278.97;4986799;28;20030;-67
2022/11/18 03:52:42;;;;;;;;;;;;;;;-142.75;100.00;76275.03;5027555;28;19912;-67
2022/11/18 03:55:13;;;;;;;;;;;;;;;-142.75;100.00;76284.88;5032375;28;20344;-67
2022/11/18 03:57:49;;;;;;;;;;;;;;;-142.75;100.00;76280.94;5027545;28;19911;-68
2022/11/18 04:00:15;;;;;;;;;;;;;;;-142.75;100.00;76290.78;5076110;28;19962;-67
2022/11/18 04:02:40;;;;;;;;;;;;;;;-142.75;100.00;76277.00;5079757;28;19915;-67
2022/11/18 04:05:08;;;;;;;;;;;;;;;-142.75;100.00;76277.00;5061746;28;19998;-67
2022/11/18 04:07:37;;;;;;;;;;;;;;;-142.75;100.00;76286.84;5078467;28;20297;-67
2022/11/18 04:10:15;;;;;;;;;;;;;;;-142.75;100.00;76282.91;5079516;28;20537;-67
2022/11/18 04:12:46;;;;;;;;;;;;;;;-142.75;100.00;76290.78;5079699;28;19912;-67
2022/11/18 04:15:11;;;;;;;;;;;;;;;-142.75;100.00;76290.78;5079656;28;19965;-67
2022/11/18 04:17:39;;;;;;;;;;;;;;;-142.75;100.00;76288.81;5078702;28;19920;-67
2022/11/18 04:20:05;;;;;;;;;;;;;;;-142.75;100.00;76294.72;5079165;28;19916;-67
2022/11/18 04:22:30;;;;;;;;;;;;;;;-142.75;100.00;76304.56;5078707;28;19919;-67
2022/11/18 04:24:55;;;;;;;;;;;;;;;-142.75;100.00;76298.66;5078555;28;19927;-67
2022/11/18 04:27:20;;;;;;;;;;;;;;;-142.75;100.00;76296.69;5077582;28;19923;-66
2022/11/18 04:29:45;;;;;;;;;;;;;;;-142.75;100.00;76292.75;5078756;28;19958;-67
2022/11/18 04:32:11;;;;;;;;;;;;;;;-142.75;100.00;76306.53;5060641;28;19916;-67
2022/11/18 04:34:36;;;;;;;;;;;;;;;-142.75;100.00;76322.28;5078822;28;19916;-66
2022/11/18 04:37:01;;;;;;;;;;;;;;;-142.75;100.00;76316.38;5078081;28;19962;-67
2022/11/18 04:39:26;;;;;;;;;;;;;;;-142.75;100.00;76310.47;5078582;28;19942;-67
2022/11/18 04:41:54;;;;;;;;;;;;;;;-142.75;100.00;76324.25;5079917;28;19955;-67
2022/11/18 04:44:24;;;;;;;;;;;;;;;-142.75;100.00;76338.03;5082290;28;20396;-67
2022/11/18 04:46:49;;;;;;;;;;;;;;;-142.75;100.00;76330.16;5082399;28;20415;-67
2022/11/18 04:49:14;;;;;;;;;;;;;;;-142.75;100.00;76338.03;5084347;28;19923;-67
2022/11/18 04:51:40;;;;;;;;;;;;;;;-142.75;100.00;76347.84;5084957;28;19916;-67
2022/11/18 04:54:05;;;;;;;;;;;;;;;-142.75;100.00;76341.97;5084599;28;19920;-67
2022/11/18 04:56:31;;;;;;;;;;;;;;;-142.75;100.00;76341.97;5084394;28;19915;-66
2022/11/18 04:59:00;;;;;;;;;;;;;;;-142.75;100.00;76349.81;5084422;28;19916;-67
2022/11/18 05:01:25;;;;;;;;;;;;;;;-142.75;100.00;76349.81;5084524;28;19916;-67
2022/11/18 05:03:50;;;;;;;;;;;;;;;-142.75;100.00;76363.59;5084039;28;19920;-66
2022/11/18 05:06:15;;;;;;;;;;;;;;;-142.75;100.00;76365.56;5084471;28;19912;-66
2022/11/18 05:08:41;;;;;;;;;;;;;;;-142.75;100.00;76365.56;5083495;28;20408;-67
2022/11/18 05:13:51;;;;;;;;;;;;;;;-142.75;100.00;76359.66;5084673;28;20629;-66
2022/11/18 05:16:16;;;;;;;;;;;;;;;-142.75;100.00;76349.81;5084100;28;19919;-66
2022/11/18 05:18:41;;;;;;;;;;;;;;;-142.75;100.00;76349.81;5083674;28;20336;-67
2022/11/18 05:21:06;;;;;;;;;;;;;;;-142.75;100.00;76353.78;5084038;28;19973;-67
2022/11/18 05:23:31;;;;;;;;;;;;;;;-142.75;100.00;76353.78;5084148;28;20365;-67
2022/11/18 05:25:57;;;;;;;;;;;;;;;-142.75;100.00;76357.69;5084066;28;19961;-67
2022/11/18 05:28:22;;;;;;;;;;;;;;;-142.75;100.00;76369.50;5081269;28;20005;-67
2022/11/18 05:30:47;;;;;;;;;;;;;;;-142.75;100.00;76367.53;5083963;28;20692;-67
2022/11/18 05:33:12;;;;;;;;;;;;;;;-142.75;100.00;76361.63;5065623;28;19916;-68
2022/11/18 05:35:37;;;;;;;;;;;;;;;-142.75;100.00;76373.44;5083830;28;19923;-67
2022/11/18 05:38:03;;;;;;;;;;;;;;;-142.75;100.00;76385.25;5082769;28;19958;-67
2022/11/18 05:40:28;;;;;;;;;;;;;;;-142.75;100.00;76391.16;5083746;28;20442;-67
2022/11/18 05:43:11;;;;;;;;;;;;;;;-142.75;100.00;76393.13;5083504;28;19947;-67
2022/11/18 05:45:37;;;;;;;;;;;;;;;-142.75;100.00;76401.00;5065729;28;20376;-67
2022/11/18 05:48:03;;;;;;;;;;;;;;;-142.75;100.00;76404.94;5077563;28;19916;-68
2022/11/18 05:50:29;;;;;;;;;;;;;;;-142.75;100.00;76410.84;5070023;28;19938;-67
2022/11/18 05:52:54;;;;;;;;;;;;;;;-142.75;100.00;76406.91;5093354;28;20369;-67
2022/11/18 05:55:21;;;;;;;;;;;;;;;-142.75;100.00;76420.69;5072706;28;19916;-67
2022/11/18 05:57:46;;;;;;;;;;;;;;;-142.75;100.00;76416.75;5082878;28;19941;-68
2022/11/18 06:00:11;;;;;;;;;;;;;;;-142.75;100.00;76414.78;5083276;28;19915;-67
2022/11/18 06:02:37;;;;;;;;;;;;;;;-142.75;100.00;76426.59;5083045;28;20309;-69
2022/11/18 06:05:03;;;;;;;;;;;;;;;-142.75;100.00;76432.50;5083338;28;19998;-67
2022/11/18 06:07:39;;;;;;;;;;;;;;;-142.75;100.00;76436.44;5082106;28;20361;-67
2022/11/18 06:10:05;;;;;;;;;;;;;;;-142.75;100.00;76428.56;5083349;28;19922;-67
2022/11/18 06:12:33;;;;;;;;;;;;;;;-142.75;100.00;76440.38;5082873;28;20309;-67
2022/11/18 06:15:04;;;;;;;;;;;;;;;-142.75;100.00;76446.28;5083345;28;19916;-67
2022/11/18 06:17:42;;;;;;;;;;;;;;;-142.75;100.00;76444.31;5082067;28;19927;-67
2022/11/18 06:20:08;;;;;;;;;;;;;;;-142.75;100.00;76452.19;5083015;28;19915;-67
2022/11/18 06:22:33;;;;;;;;;;;;;;;-142.75;100.00;76464.00;5082287;28;19927;-67
2022/11/18 06:24:59;;;;;;;;;;;;;;;-142.75;100.00;76464.00;5082909;28;20346;-67
2022/11/18 06:27:24;;;;;;;;;;;;;;;-142.75;100.00;76460.06;5081961;28;19916;-67
2022/11/18 06:29:49;;;;;;;;;;;;;;;-142.75;100.00;76471.88;5082431;28;19982;-66
2022/11/18 06:32:14;;;;;;;;;;;;;;;-142.75;100.00;76471.88;5082750;28;20461;-65
2022/11/18 06:34:40;;;;;;;;;;;;;;;-142.75;100.00;76481.72;5083010;28;19916;-67
2022/11/18 06:37:12;;;;;;;;;;;;;;;-142.75;100.00;76489.59;5081549;28;19935;-67
2022/11/18 06:39:37;;;;;;;;;;;;;;;-142.75;100.00;76487.63;5082706;28;19966;-68
2022/11/18 06:42:03;;;;;;;;;;;;;;;-142.75;100.00;76471.88;5082666;28;19915;-69
2022/11/18 06:44:28;;;;;;;;;;;;;;;-142.75;100.00;76473.84;5082614;28;19924;-69
2022/11/18 06:46:56;;;;;;;;;;;;;;;-142.75;100.00;76483.69;5081564;28;19920;-69
2022/11/18 06:49:22;;;;;;;;;;;;;;;-142.75;100.00;76487.63;5082143;28;19995;-69
2022/11/18 06:51:47;;;;;;;;;;;;;;;-142.75;100.00;76487.63;5082634;28;20011;-69
2022/11/18 06:54:12;;;;;;;;;;;;;;;-142.75;100.00;76491.56;5082226;28;20043;-69
2022/11/18 06:56:37;;;;;;;;;;;;;;;-142.75;100.00;76503.38;5081601;28;20409;-68
2022/11/18 06:59:03;;;;;;;;;;;;;;;-142.75;100.00;76497.47;5082052;28;19985;-69
2022/11/18 07:01:29;;;;;;;;;;;;;;;-142.75;100.00;76507.31;5081947;28;20313;-71
2022/11/18 07:03:56;;;;;;;;;;;;;;;-142.75;100.00;76519.13;5081877;28;20377;-69
2022/11/18 07:06:22;;;;;;;;;;;;;;;-142.75;100.00;76515.19;5081918;28;19916;-69
2022/11/18 07:08:48;;;;;;;;;;;;;;;-142.75;100.00;76517.16;5081470;28;20026;-69
2022/11/18 07:11:15;;;;;;;;;;;;;;;-142.75;100.00;76519.13;5081931;28;19916;-69
2022/11/18 07:13:40;;;;;;;;;;;;;;;-142.75;100.00;76521.09;5082393;28;19923;-70
2022/11/18 07:16:11;;;;;;;;;;;;;;;-142.75;100.00;76527.00;5081833;28;20014;-69
2022/11/18 07:18:37;;;;;;;;;;;;;;;-142.75;100.00;76536.84;5090281;28;19951;-70
2022/11/18 07:21:04;;;;;;;;;;;;;;;-142.75;100.00;76523.06;5102270;28;19919;-69
2022/11/18 07:23:33;;;;;;;;;;;;;;;-142.75;100.00;76519.13;5102054;28;19931;-69
2022/11/18 07:25:58;;;;;;;;;;;;;;;-142.75;100.00;76521.09;5070079;28;20364;-68
2022/11/18 07:28:24;;;;;;;;;;;;;;;-142.75;100.00;76527.00;5023848;28;20459;-67
2022/11/18 07:30:50;;;;;;;;;;;;;;;-142.75;100.00;76507.31;5002276;28;19983;-67
2022/11/18 07:33:15;;;;;;;;;;;;;;;-142.75;100.00;76517.16;5024506;28;20176;-69
2022/11/18 07:35:40;;;;;;;;;;;;;;;-142.75;100.00;76515.19;5033382;28;20193;-68
2022/11/18 07:38:06;;;;;;;;;;;;;;;-142.75;100.00;76513.22;5038273;28;20225;-67
2022/11/18 07:40:31;;;;;;;;;;;;;;;-142.75;100.00;76511.25;5034226;22;20082;-69
2022/11/18 07:42:56;;;;;;;;;;;;;;;-142.75;100.00;76491.56;5010883;28;19920;-69
2022/11/18 07:45:22;;;;;;;;;;;;;;;-142.75;100.00;76483.69;5021188;28;20456;-69
2022/11/18 07:47:48;;;;;;;;;;;;;;;-142.75;100.00;76493.53;5006349;28;20050;-69
2022/11/18 07:50:13;;;;;;;;;;;;;;;-142.75;100.00;76491.56;5015653;28;20306;-69
2022/11/18 07:52:38;;;;;;;;;;;;;;;-142.75;100.00;76501.41;5041675;28;20236;-69
2022/11/18 07:55:04;;;;;;;;;;;;;;;-142.75;100.00;76501.41;5041937;28;20232;-69
2022/11/18 07:57:29;;;;;;;;;;;;;;;-142.75;100.00;76487.63;5041712;28;20216;-69
2022/11/18 07:59:54;;;;;;;;;;;;;;;-142.75;100.00;76481.72;5041451;28;19911;-68
2022/11/18 08:02:20;;;;;;;;;;;;;;;-142.75;100.00;76460.06;5041730;28;20256;-68
2022/11/18 08:04:45;;;;;;;;;;;;;;;-142.75;100.00;76436.44;5041818;28;20278;-68
2022/11/18 08:07:10;;;;;;;;;;;;;;;-142.75;100.00;76381.31;5041443;28;20131;-68
2022/11/18 08:09:36;;;;;;;;;;;;;;;-142.75;100.00;76369.50;5041988;28;20058;-68
2022/11/18 08:12:01;;;;;;;;;;;;;;;-142.75;100.00;76338.03;5027548;28;20311;-68
2022/11/18 08:14:27;;;;;;;;;;;;;;;-142.75;100.00;76330.16;5041379;28;20229;-68
2022/11/18 08:16:53;;;;;;;;;;;;;;;-142.75;100.00;76328.19;5026017;28;19958;-68
2022/11/18 08:19:18;;;;;;;;;;;;;;;-142.75;100.00;76369.50;5046189;28;20287;-68
2022/11/18 08:21:43;;;;;;;;;;;;;;;-142.75;100.00;76373.44;5052502;28;20229;-68
2022/11/18 08:24:09;;;;;;;;;;;;;;;-142.75;100.00;76408.88;5098752;28;19919;-66
2022/11/18 08:26:34;;;;;;;;;;;;;;;-142.75;100.00;76420.69;5102280;28;20411;-66
2022/11/18 08:28:59;;;;;;;;;;;;;;;-142.75;100.00;76432.50;5101367;28;19911;-67
2022/11/18 08:31:26;;;;;;;;;;;;;;;-142.75;100.00;76430.53;5105152;28;19917;-67
2022/11/18 08:33:55;;;;;;;;;;;;;;;-142.75;100.00;76446.28;5105259;28;19919;-66
2022/11/18 08:36:22;;;;;;;;;;;;;;;-142.75;100.00;76464.00;5105236;28;19958;-68
2022/11/18 08:38:47;;;;;;;;;;;;;;;-142.75;100.00;76454.16;5104372;28;19920;-69
2022/11/18 08:41:13;;;;;;;;;;;;;;;-142.75;100.00;76444.31;5086887;28;19911;-68
2022/11/18 08:43:39;;;;;;;;;;;;;;;-142.75;100.00;76452.19;5104089;28;19958;-66
2022/11/18 08:46:04;;;;;;;;;;;;;;;-142.75;100.00;76420.69;5104768;28;20006;-69
2022/11/18 08:48:29;;;;;;;;;;;;;;;-142.75;100.00;76404.94;5104221;28;20440;-67
2022/11/18 08:50:56;;;;;;;;;;;;;;;-142.75;100.00;76359.66;5104688;28;20716;-67
2022/11/18 08:53:21;;;;;;;;;;;;;;;-142.75;100.00;76345.91;5104630;28;19969;-65
2022/11/18 08:55:47;;;;;;;;;;;;;;;-142.75;100.00;76363.59;5105346;28;19973;-67
2022/11/18 08:58:12;;;;;;;;;;;;;;;-142.75;100.00;76369.50;5104285;28;19911;-70
2022/11/18 09:00:37;;;;;;;;;;;;;;;-142.75;100.00;76393.13;5086449;28;19919;-66
2022/11/18 09:03:03;;;;;;;;;;;;;;;-142.75;100.00;76401.00;5104688;28;20329;-67
2022/11/18 09:05:28;;;;;;;;;;;;;;;-142.75;100.00;76402.97;5104091;28;19915;-70
2022/11/18 09:07:53;;;;;;;;;;;;;;;-142.75;100.00;76336.06;5103282;28;19925;-67
2022/11/18 09:10:18;;;;;;;;;;;;;;;-142.75;100.00;76247.47;5103995;28;20028;-67
2022/11/18 09:12:43;;;;;;;;;;;;;;;-142.75;100.00;76180.56;5104195;28;19964;-67
2022/11/18 09:15:09;;;;;;;;;;;;;;;-142.75;100.00;76143.16;5103711;28;19911;-66
2022/11/18 09:17:34;;;;;;;;;;;;;;;-142.75;100.00;76086.06;5103108;28;20451;-66
2022/11/18 09:19:59;;;;;;;;;;;;;;;-142.75;100.00;76076.22;5103931;28;19974;-68
2022/11/18 09:22:24;;;;;;;;;;;;;;;-142.75;100.00;76086.06;5104145;28;19918;-65
2022/11/18 09:24:50;;;;;;;;;;;;;;;-142.75;100.00;76058.53;5103649;28;19932;-64
2022/11/18 09:27:15;;;;;;;;;;;;;;;-142.75;100.00;76107.72;5102148;28;20006;-65
2022/11/18 09:29:40;;;;;;;;;;;;;;;-142.75;100.00;76158.91;5103783;28;19926;-68
2022/11/18 09:32:05;;;;;;;;;;;;;;;-142.75;100.00;76204.16;5104043;28;19911;-67
2022/11/18 09:34:32;;;;;;;;;;;;;;;-142.75;100.00;76273.06;5103620;28;19947;-67
2022/11/18 09:36:58;;;;;;;;;;;;;;;-142.75;100.00;76296.69;5102606;28;19916;-66
2022/11/18 09:39:24;;;;;;;;;;;;;;;-142.75;100.00;76328.19;5084899;28;19918;-67
2022/11/18 09:42:08;;;;;;;;;;;;;;;-142.75;100.00;76389.19;5103758;28;19961;-70
2022/11/18 09:44:57;;;;;;;;;;;;;;;-142.75;100.00;76410.84;5103223;28;19919;-67
2022/11/18 09:47:32;;;;;;;;;;;;;;;-142.75;100.00;76440.38;5102711;28;19965;-67
2022/11/18 09:50:18;;;;;;;;;;;;;;;-142.75;100.00;76440.38;5103513;28;20296;-67
2022/11/18 09:52:43;;;;;;;;;;;;;;;-142.75;100.00;76448.25;5103636;28;19951;-67
2022/11/18 09:55:12;;;;;;;;;;;;;;;-142.75;100.00;76467.94;5102971;28;20029;-67
2022/11/18 09:57:39;;;;;;;;;;;;;;;-142.75;100.00;76475.81;5102555;28;19921;-68
2022/11/18 10:00:13;;;;;;;;;;;;;;;-142.75;100.00;76483.69;5103114;28;19923;-67
2022/11/18 10:02:58;;;;;;;;;;;;;;;-142.75;100.00;76511.25;5103641;28;19911;-66
2022/11/18 10:05:27;;;;;;;;;;;;;;;-142.75;100.00;76505.34;5085411;28;20627;-66
2022/11/18 10:08:03;;;;;;;;;;;;;;;-142.75;100.00;76497.47;5083919;28;20337;-67
2022/11/18 10:10:47;;;;;;;;;;;;;;;-142.75;100.00;76489.59;5102790;28;19911;-67
2022/11/18 10:13:29;;;;;;;;;;;;;;;-142.75;100.00;76495.50;5102993;28;19912;-66
2022/11/18 10:16:06;;;;;;;;;;;;;;;-142.75;100.00;76489.59;5103058;28;19952;-69
2022/11/18 10:18:41;;;;;;;;;;;;;;;-142.75;100.00;76489.59;5083571;28;19919;-68
2022/11/18 10:21:12;;;;;;;;;;;;;;;-142.75;100.00;76507.31;5102754;28;19911;-67
2022/11/18 10:23:44;;;;;;;;;;;;;;;-142.75;100.00;76481.72;5102993;28;19967;-68
2022/11/18 10:26:09;;;;;;;;;;;;;;;-142.75;100.00;76489.59;5102705;28;19916;-69
2022/11/18 10:28:35;;;;;;;;;;;;;;;-142.75;100.00;76481.72;5102116;28;20431;-67
2022/11/18 10:31:07;;;;;;;;;;;;;;;-142.75;100.00;76487.63;5102994;28;19911;-66
2022/11/18 10:33:33;;;;;;;;;;;;;;;-142.75;100.00;76485.66;5085119;28;20021;-66
2022/11/18 10:36:13;;;;;;;;;;;;;;;-142.75;100.00;76497.47;5101257;28;19911;-66
2022/11/18 10:38:39;;;;;;;;;;;;;;;-142.75;100.00;76475.81;5080310;28;20056;-67
2022/11/18 10:41:08;;;;;;;;;;;;;;;-142.75;100.00;76471.88;5099247;28;20368;-67
2022/11/18 10:43:42;;;;;;;;;;;;;;;-142.75;100.00;76471.88;5098382;28;19912;-68
2022/11/18 10:46:26;;;;;;;;;;;;;;;-142.75;100.00;76467.94;5097862;28;19924;-66
2022/11/18 10:49:09;;;;;;;;;;;;;;;-142.75;100.00;76477.78;5078129;28;19919;-67
2022/11/18 10:51:35;;;;;;;;;;;;;;;-142.75;100.00;76462.03;5099360;28;19911;-68
2022/11/18 10:54:14;;;;;;;;;;;;;;;-142.75;100.00;76450.22;5096302;28;19912;-66
2022/11/18 10:56:45;;;;;;;;;;;;;;;-142.75;100.00;76432.50;5097891;28;19918;-67
2022/11/18 10:59:16;;;;;;;;;;;;;;;-142.75;100.00;76397.06;5102239;28;19958;-64
2022/11/18 11:01:41;;;;;;;;;;;;;;;-142.75;100.00;76408.88;5081242;28;19912;-66
2022/11/18 11:04:21;;;;;;;;;;;;;;;-142.75;100.00;76424.63;5098902;28;19923;-66
2022/11/18 11:06:46;;;;;;;;;;;;;;;-142.75;100.00;76432.50;5101751;28;19943;-68
2022/11/18 11:09:11;;;;;;;;;;;;;;;-142.75;100.00;76436.44;5102310;28;19954;-66
2022/11/18 11:11:44;;;;;;;;;;;;;;;-142.75;100.00;76432.50;5101510;28;20014;-68
2022/11/18 11:14:13;;;;;;;;;;;;;;;-142.75;100.00;76428.56;5083039;28;20724;-66
2022/11/18 11:16:44;;;;;;;;;;;;;;;-142.75;100.00;76428.56;5100817;28;20261;-67
2022/11/18 11:19:11;;;;;;;;;;;;;;;-142.75;100.00;76438.41;5102281;28;19926;-68
2022/11/18 11:21:36;;;;;;;;;;;;;;;-142.75;100.00;76432.50;5100809;28;19917;-66
2022/11/18 11:24:02;;;;;;;;;;;;;;;-142.75;100.00;76436.44;5102325;28;20360;-66
2022/11/18 11:26:34;;;;;;;;;;;;;;;-142.75;100.00;76424.63;5101965;28;19923;-67
2022/11/18 11:29:22;;;;;;;;;;;;;;;-142.75;100.00;76420.69;5102293;28;19912;-67
2022/11/18 11:31:47;;;;;;;;;;;;;;;-142.75;100.00;76434.47;5090233;28;19916;-67
2022/11/18 11:34:21;;;;;;;;;;;;;;;-142.75;100.00;76446.28;5102297;28;20426;-67
2022/11/18 11:36:54;;;;;;;;;;;;;;;-142.75;100.00;76444.31;5101459;28;19959;-66
2022/11/18 11:39:19;;;;;;;;;;;;;;;-142.75;100.00;76440.38;5101955;28;19994;-66
2022/11/18 11:41:51;;;;;;;;;;;;;;;-142.75;100.00;76436.44;5102156;28;19911;-66
2022/11/18 11:44:31;;;;;;;;;;;;;;;-142.75;100.00;76444.31;5102148;28;19942;-66
2022/11/18 11:49:55;;;;;;;;;;;;;;;-142.75;100.00;76440.38;5101886;28;19935;-67
2022/11/18 11:52:30;;;;;;;;;;;;;;;-142.75;100.00;76454.16;5087401;28;19914;-67
2022/11/18 11:55:01;;;;;;;;;;;;;;;-142.75;100.00;76452.19;5106197;28;19986;-66
2022/11/18 11:57:39;;;;;;;;;;;;;;;-142.75;100.00;76458.09;5087282;28;19916;-67
2022/11/18 12:00:08;;;;;;;;;;;;;;;-142.75;100.00;76460.06;5105786;28;19912;-67
2022/11/18 12:02:52;;;;;;;;;;;;;;;-142.75;100.00;76462.03;5106033;28;19917;-67
2022/11/18 12:05:17;;;;;;;;;;;;;;;-142.75;100.00;76467.94;5105964;28;20041;-66
2022/11/18 12:07:50;;;;;;;;;;;;;;;-142.75;100.00;76458.09;5087318;28;19916;-67
2022/11/18 12:10:33;;;;;;;;;;;;;;;-142.75;100.00;76465.97;5105707;28;19912;-65
2022/11/18 12:13:14;;;;;;;;;;;;;;;-142.75;100.00;76448.25;5087420;28;20010;-66
2022/11/18 12:15:46;;;;;;;;;;;;;;;-142.75;100.00;76452.19;5105974;28;19911;-65
2022/11/18 12:18:29;;;;;;;;;;;;;;;-142.75;100.00;76456.13;5105025;28;20320;-67
2022/11/18 12:20:55;;;;;;;;;;;;;;;-142.75;100.00;76462.03;5105785;28;19911;-64
2022/11/18 12:23:25;;;;;;;;;;;;;;;-142.75;100.00;76462.03;5105496;28;20416;-67
2022/11/18 12:25:59;;;;;;;;;;;;;;;-142.75;100.00;76460.06;5105590;28;19915;-63
2022/11/18 12:28:25;;;;;;;;;;;;;;;-142.75;100.00;76458.09;5104523;28;19911;-65
2022/11/18 12:31:10;;;;;;;;;;;;;;;-142.75;100.00;76464.00;5087202;28;19968;-66
2022/11/18 12:33:41;;;;;;;;;;;;;;;-142.75;100.00;76481.72;5105276;28;19911;-66
2022/11/18 12:36:06;;;;;;;;;;;;;;;-142.75;100.00;76483.69;5105994;28;19911;-66